Time;durP1;ratioP1;P1;durP2;ratioP2;P2;SDS_P1;SDS_P2;PMS_P1;PMS_P2;Temp;Humidity;BMP_temperature;BMP_pressure;BME280_temperature;BME280_humidity;BME280_pressure;Samples;Min_cycle;Max_cycle;Signal;HPM_P1;HPM_P2
2022/10/17 00:00:25;;;;;;;31.40;28.40;;;;;;;15.86;71.41;101258.62;108365;1283;21932;-82
2022/10/17 00:03:17;;;;;;;29.60;26.50;;;;;;;15.81;71.53;101266.55;108532;1280;21964;-81
2022/10/17 00:05:47;;;;;;;28.50;26.10;;;;;;;15.81;71.66;101275.67;108464;1278;22398;-82
2022/10/17 00:08:18;;;;;;;28.90;26.10;;;;;;;15.81;71.76;101278.83;108102;1280;21945;-81
2022/10/17 00:11:04;;;;;;;29.30;26.50;;;;;;;15.81;71.76;101280.05;108527;1280;22398;-81
2022/10/17 00:13:33;;;;;;;29.40;26.30;;;;;;;15.80;71.79;101282.02;108486;1280;23056;-81
2022/10/17 00:16:04;;;;;;;28.90;26.10;;;;;;;15.80;71.80;101283.27;108743;1280;21955;-81
2022/10/17 00:18:33;;;;;;;30.90;27.60;;;;;;;15.80;71.95;101283.29;108705;1280;21930;-80
2022/10/17 00:21:05;;;;;;;29.50;26.70;;;;;;;15.80;71.95;101286.61;108459;1280;21935;-81
2022/10/17 00:23:34;;;;;;;31.10;28.30;;;;;;;15.78;71.96;101288.61;108520;1280;21969;-82
2022/10/17 00:26:05;;;;;;;31.20;28.20;;;;;;;15.78;71.90;101297.94;108603;1274;21923;-80
2022/10/17 00:28:34;;;;;;;32.40;29.30;;;;;;;15.78;71.95;101303.01;109048;1266;21931;-81
2022/10/17 00:31:08;;;;;;;32.10;29.00;;;;;;;15.79;71.96;101304.73;108869;1276;21975;-82
2022/10/17 00:33:38;;;;;;;38.40;34.90;;;;;;;15.79;72.06;101306.98;108749;1276;21940;-82
2022/10/17 00:36:14;;;;;;;42.60;38.60;;;;;;;15.80;71.94;101301.88;108670;1275;23819;-81
2022/10/17 00:38:47;;;;;;;40.70;37.10;;;;;;;15.79;71.87;101297.54;108868;1274;21928;-81
2022/10/17 00:41:21;;;;;;;46.60;42.60;;;;;;;15.76;71.86;101292.93;107756;1280;1236034;-81
2022/10/17 00:44:17;;;;;;;43.10;38.90;;;;;;;15.73;71.89;101288.99;108641;1280;21858;-82
2022/10/17 00:46:46;;;;;;;40.20;36.60;;;;;;;15.66;71.84;101283.50;108775;1277;21985;-82
2022/10/17 00:49:15;;;;;;;35.60;32.50;;;;;;;15.60;71.86;101276.39;108721;1279;21938;-81
2022/10/17 00:51:52;;;;;;;33.40;30.30;;;;;;;15.52;71.92;101269.38;108687;1280;21963;-82
2022/10/17 00:54:29;;;;;;;33.40;29.90;;;;;;;15.41;72.05;101263.21;108595;1280;21945;-82
2022/10/17 00:56:59;;;;;;;33.50;30.50;;;;;;;15.32;72.31;101251.48;108449;1280;21945;-82
2022/10/17 00:59:33;;;;;;;31.70;28.80;;;;;;;15.25;72.35;101247.04;108559;1274;23567;-82
2022/10/17 01:02:12;;;;;;;32.40;29.50;;;;;;;15.19;72.54;101245.39;108760;1274;21946;-82
2022/10/17 01:04:49;;;;;;;31.20;28.30;;;;;;;15.12;72.60;101249.00;108787;1274;21958;-82
2022/10/17 01:07:18;;;;;;;33.70;30.60;;;;;;;15.07;72.72;101254.84;108626;1269;23664;-83
2022/10/17 01:09:51;;;;;;;32.20;29.30;;;;;;;14.98;72.82;101260.45;108378;1283;21953;-82
2022/10/17 01:12:56;;;;;;;32.40;29.50;;;;;;;14.97;73.01;101262.27;108429;1283;23699;-82
2022/10/17 01:15:43;;;;;;;32.60;29.40;;;;;;;14.92;73.15;101265.27;108513;1283;21938;-82
2022/10/17 01:18:33;;;;;;;33.00;30.00;;;;;;;14.86;73.19;101271.46;108440;1283;21951;-81
2022/10/17 01:21:09;;;;;;;33.90;30.50;;;;;;;14.86;73.28;101277.96;108485;1282;21931;-82
2022/10/17 01:24:04;;;;;;;32.50;29.70;;;;;;;14.91;73.28;101280.20;108665;1280;21956;-83
2022/10/17 01:27:04;;;;;;;33.80;30.70;;;;;;;14.89;73.39;101272.94;108589;1280;21939;-83
2022/10/17 01:29:52;;;;;;;34.90;31.70;;;;;;;14.86;73.25;101272.70;108848;1274;22673;-83
2022/10/17 01:32:45;;;;;;;34.60;31.30;;;;;;;14.83;73.22;101273.02;109081;1274;21937;-82
2022/10/17 01:35:53;;;;;;;33.40;30.10;;;;;;;14.77;73.13;101274.29;108781;1274;21934;-82
2022/10/17 01:38:47;;;;;;;35.50;32.30;;;;;;;14.69;73.24;101274.43;108918;1262;23107;-82
2022/10/17 01:41:31;;;;;;;33.60;30.60;;;;;;;14.64;73.31;101272.55;108805;1274;24110;-81
2022/10/17 01:44:34;;;;;;;34.00;30.60;;;;;;;14.60;73.34;101280.39;108787;1275;22254;-82
2022/10/17 01:47:15;;;;;;;35.20;31.80;;;;;;;14.56;73.46;101284.23;109289;1276;21938;-83
2022/10/17 01:49:59;;;;;;;37.80;34.40;;;;;;;14.53;73.51;101285.04;108490;1280;21989;-82
2022/10/17 01:52:54;;;;;;;36.30;32.90;;;;;;;14.53;73.51;101287.50;108543;1281;23854;-82
2022/10/17 01:55:33;;;;;;;36.50;32.30;;;;;;;14.50;73.55;101290.77;108291;1286;23091;-82
2022/10/17 01:58:11;;;;;;;35.70;32.20;;;;;;;14.48;73.56;101294.84;108140;1286;23739;-81
2022/10/17 02:00:42;;;;;;;34.10;31.00;;;;;;;14.44;73.51;101290.98;108281;1285;23588;-82
2022/10/17 02:03:22;;;;;;;36.30;32.90;;;;;;;14.40;73.60;101289.75;108360;1286;21943;-81
2022/10/17 02:05:51;;;;;;;35.70;32.50;;;;;;;14.36;73.62;101291.98;108282;1286;21940;-81
2022/10/17 02:08:39;;;;;;;34.60;31.50;;;;;;;14.35;73.73;101295.16;108166;1280;21945;-81
2022/10/17 02:11:20;;;;;;;35.20;31.70;;;;;;;14.32;73.75;101299.13;108294;1280;21982;-82
2022/10/17 02:14:31;;;;;;;35.90;32.30;;;;;;;14.32;73.82;101306.68;108564;1277;21939;-81
2022/10/17 02:17:43;;;;;;;37.40;33.90;;;;;;;14.30;73.83;101306.06;108611;1274;21942;-81
2022/10/17 02:20:52;;;;;;;37.20;33.40;;;;;;;14.27;73.84;101299.85;109040;1274;21930;-82
2022/10/17 02:24:02;;;;;;;36.90;33.70;;;;;;;14.21;73.88;101299.20;108842;1274;22107;-82
2022/10/17 02:26:51;;;;;;;34.80;31.70;;;;;;;14.18;73.86;101298.80;108806;1274;23769;-83
2022/10/17 02:29:33;;;;;;;36.80;33.30;;;;;;;14.18;73.78;101292.34;108790;1275;23035;-82
2022/10/17 02:32:20;;;;;;;35.90;32.80;;;;;;;14.15;73.65;101288.23;108791;1274;21958;-83
2022/10/17 02:34:57;;;;;;;38.40;34.70;;;;;;;14.05;73.57;101290.19;108796;1275;21963;-82
2022/10/17 02:37:33;;;;;;;37.40;33.80;;;;;;;13.95;73.63;101289.84;108826;1275;22293;-83
2022/10/17 02:40:07;;;;;;;38.20;34.50;;;;;;;13.90;73.82;101289.87;108867;1274;22831;-83
2022/10/17 02:42:44;;;;;;;37.40;34.00;;;;;;;13.87;73.96;101287.36;108828;1275;21931;-83
2022/10/17 02:45:26;;;;;;;37.90;34.40;;;;;;;13.83;74.24;101302.90;108822;1275;21952;-83
2022/10/17 02:48:08;;;;;;;38.80;35.10;;;;;;;13.84;74.40;101321.58;108940;1274;21938;-82
2022/10/17 02:51:18;;;;;;;36.40;33.00;;;;;;;13.87;74.44;101329.71;108924;1275;23118;-82
2022/10/17 02:54:05;;;;;;;38.70;35.00;;;;;;;13.86;74.42;101325.87;108851;1274;21931;-81
2022/10/17 02:56:42;;;;;;;37.70;34.10;;;;;;;13.86;74.16;101329.73;108616;1274;22386;-81
2022/10/17 02:59:14;;;;;;;38.00;34.50;;;;;;;13.85;74.13;101336.06;108750;1268;24028;-81
2022/10/17 03:01:44;;;;;;;38.20;34.30;;;;;;;13.84;74.08;101338.34;108797;1275;21926;-81
2022/10/17 03:04:26;;;;;;;;;;;;;;;;;;;;;
2022/10/17 03:06:55;;;;;;;;;;;;;;;13.81;74.08;101336.20;108936;1274;23639;-81
2022/10/17 03:09:26;;;;;;;39.30;35.60;;;;;;;13.71;74.33;101333.23;108820;1275;23671;-83
2022/10/17 03:11:56;;;;;;;39.00;35.20;;;;;;;13.68;74.16;101337.89;108850;1276;21973;-83
2022/10/17 03:14:34;;;;;;;40.00;35.70;;;;;;;13.63;74.12;101334.56;108770;1264;21929;-82
2022/10/17 03:17:05;;;;;;;40.90;36.80;;;;;;;13.53;74.11;101334.02;108948;1274;21947;-82
2022/10/17 03:19:37;;;;;;;38.60;34.80;;;;;;;13.45;74.24;101331.49;108816;1277;23693;-81
2022/10/17 03:22:06;;;;;;;40.40;36.70;;;;;;;13.39;74.31;101331.70;108668;1278;23069;-81
2022/10/17 03:24:44;;;;;;;40.00;36.20;;;;;;;13.33;74.48;101331.73;108436;1280;22008;-81
2022/10/17 03:27:15;;;;;;;40.80;36.90;;;;;;;13.28;74.65;101329.77;108587;1277;21933;-81
2022/10/17 03:29:49;;;;;;;38.70;35.20;;;;;;;13.24;74.84;101329.20;108680;1277;23581;-82
2022/10/17 03:32:25;;;;;;;39.20;35.20;;;;;;;13.19;74.94;101327.61;108678;1278;23675;-82
2022/10/17 03:35:42;;;;;;;39.10;35.60;;;;;;;13.12;75.23;101324.52;108719;1277;21934;-81
2022/10/17 03:38:35;;;;;;;39.90;36.40;;;;;;;13.07;75.26;101324.67;108206;1283;21962;-81
2022/10/17 03:41:06;;;;;;;40.30;36.60;;;;;;;13.04;75.32;101321.81;108534;1280;23071;-82
2022/10/17 03:43:38;;;;;;;41.60;37.50;;;;;;;13.01;75.44;101320.52;108532;1280;23866;-81
2022/10/17 03:46:11;;;;;;;37.50;33.90;;;;;;;12.97;75.45;101318.55;108321;1283;21959;-81
2022/10/17 03:48:52;;;;;;;39.80;36.30;;;;;;;12.94;75.57;101323.89;108330;1283;21951;-80
2022/10/17 03:51:27;;;;;;;42.40;38.50;;;;;;;12.91;75.61;101331.69;108243;1283;21968;-83
2022/10/17 03:54:05;;;;;;;38.70;34.80;;;;;;;12.89;75.73;101334.17;108091;1282;21942;-82
2022/10/17 03:56:42;;;;;;;39.60;35.90;;;;;;;12.91;75.86;101341.46;108312;1280;21938;-82
2022/10/17 03:59:26;;;;;;;40.40;36.20;;;;;;;12.92;75.85;101339.48;108559;1280;21935;-82
2022/10/17 04:02:09;;;;;;;42.10;38.20;;;;;;;12.94;75.83;101332.96;108624;1280;21956;-82
2022/10/17 04:04:45;;;;;;;42.30;38.20;;;;;;;12.91;75.79;101327.67;108608;1278;21948;-81
2022/10/17 04:07:22;;;;;;;39.90;36.30;;;;;;;12.86;75.76;101327.29;108963;1274;21917;-81
2022/10/17 04:10:05;;;;;;;42.50;38.50;;;;;;;12.79;75.84;101326.11;108775;1274;21929;-82
2022/10/17 04:12:56;;;;;;;41.60;37.70;;;;;;;12.74;76.03;101335.00;108852;1276;24279;-82
2022/10/17 04:16:06;;;;;;;;;;;;;;;;;;;;;
2022/10/17 04:19:02;;;;;;;40.70;37.00;;;;;;;12.73;76.31;101343.41;108928;1261;23772;-82
2022/10/17 04:21:41;;;;;;;40.60;36.80;;;;;;;12.78;76.38;101347.80;108819;1275;23579;-82
2022/10/17 04:24:41;;;;;;;40.60;36.50;;;;;;;12.82;76.31;101357.27;108633;1280;23057;-82
2022/10/17 04:27:50;;;;;;;39.70;35.80;;;;;;;12.91;76.37;101374.30;108409;1276;21986;-82
2022/10/17 04:30:44;;;;;;;40.60;36.80;;;;;;;12.95;76.19;101380.81;108359;1283;23595;-82
2022/10/17 04:33:55;;;;;;;38.00;34.40;;;;;;;12.99;76.15;101380.86;108209;1283;22018;-82
2022/10/17 04:36:41;;;;;;;38.00;34.30;;;;;;;13.04;76.03;101376.88;108000;1286;21940;-82
2022/10/17 04:39:29;;;;;;;39.30;35.60;;;;;;;13.05;75.91;101374.38;108303;1284;23090;-82
2022/10/17 04:42:26;;;;;;;54.80;38.20;;;;;;;13.06;75.71;101370.15;108086;1281;23608;-82
2022/10/17 04:45:03;;;;;;;40.20;35.70;;;;;;;13.06;75.58;101365.08;108572;1281;23589;-82
2022/10/17 04:47:39;;;;;;;39.80;35.80;;;;;;;13.05;75.40;101354.47;108355;1282;21935;-81
2022/10/17 04:50:11;;;;;;;41.30;37.40;;;;;;;13.03;75.24;101357.86;108530;1277;21933;-80
2022/10/17 04:52:45;;;;;;;40.80;36.60;;;;;;;12.94;75.16;101351.68;108745;1277;21925;-82
2022/10/17 04:55:24;;;;;;;40.40;36.50;;;;;;;12.84;75.22;101348.47;108842;1277;23025;-82
2022/10/17 04:58:01;;;;;;;38.80;34.50;;;;;;;12.78;75.36;101353.89;108786;1266;24296;-80
2022/10/17 05:00:41;;;;;;;41.70;37.40;;;;;;;12.70;75.60;101362.35;108690;1277;21930;-81
2022/10/17 05:03:41;;;;;;;41.10;36.80;;;;;;;12.68;75.75;101364.88;108686;1277;21925;-81
2022/10/17 05:06:19;;;;;;;39.20;35.40;;;;;;;12.68;75.80;101371.70;108694;1278;21950;-81
2022/10/17 05:09:49;;;;;;;42.00;37.70;;;;;;;12.64;75.86;101374.93;108666;1278;21994;-81
2022/10/17 05:12:35;;;;;;;40.30;36.30;;;;;;;12.60;75.86;101372.27;108670;1278;21955;-82
2022/10/17 05:15:30;;;;;;;40.30;36.20;;;;;;;12.57;75.89;101374.98;108492;1278;22463;-83
2022/10/17 05:18:15;;;;;;;40.50;36.60;;;;;;;12.55;75.91;101373.65;108574;1278;21995;-81
2022/10/17 05:20:54;;;;;;;41.40;37.30;;;;;;;12.51;76.00;101380.58;108842;1274;22353;-83
2022/10/17 05:24:08;;;;;;;38.90;34.80;;;;;;;12.48;76.09;101385.73;108480;1280;21940;-80
2022/10/17 05:26:42;;;;;;;40.50;36.80;;;;;;;12.48;76.11;101389.38;108087;1280;23779;-80
2022/10/17 05:29:16;;;;;;;41.10;37.10;;;;;;;12.49;76.10;101389.89;108617;1280;21954;-79
2022/10/17 05:31:56;;;;;;;40.40;36.10;;;;;;;12.50;76.09;101394.39;108307;1282;22479;-82
2022/10/17 05:35:03;;;;;;;41.60;37.30;;;;;;;12.47;76.15;101390.98;108314;1283;21959;-82
2022/10/17 05:37:41;;;;;;;41.90;36.90;;;;;;;12.44;76.21;101399.98;108370;1280;23823;-81
2022/10/17 05:40:42;;;;;;;40.80;36.70;;;;;;;12.44;76.22;101402.27;108524;1280;21945;-81
2022/10/17 05:43:37;;;;;;;40.90;36.90;;;;;;;12.42;76.26;101404.73;108197;1286;21969;-80
2022/10/17 05:46:33;;;;;;;40.90;36.80;;;;;;;12.42;76.38;101403.54;108281;1285;21940;-82
2022/10/17 05:49:26;;;;;;;;;;;;;;;;;;;;;
2022/10/17 05:52:56;;;;;;;42.70;38.30;;;;;;;12.39;76.56;101401.18;107741;1291;23787;-81
2022/10/17 05:56:06;;;;;;;42.80;38.80;;;;;;;12.37;76.67;101401.40;108110;1285;22720;-81
2022/10/17 05:58:58;;;;;;;40.10;35.80;;;;;;;12.38;76.63;101397.52;107931;1288;21947;-81
2022/10/17 06:02:06;;;;;;;39.90;35.70;;;;;;;12.39;76.72;101398.20;108088;1282;23090;-81
2022/10/17 06:05:14;;;;;;;38.90;35.20;;;;;;;12.41;76.70;101402.49;108246;1285;24417;-80
2022/10/17 06:07:51;;;;;;;42.40;35.50;;;;;;;12.44;76.72;101403.63;108280;1284;21950;-80
2022/10/17 06:10:54;;;;;;;38.10;34.40;;;;;;;12.49;76.87;101407.52;108525;1278;22987;-81
2022/10/17 06:14:01;;;;;;;48.00;38.20;;;;;;;12.54;76.85;101413.30;108510;1281;23056;-82
2022/10/17 06:16:42;;;;;;;46.70;39.60;;;;;;;12.63;76.86;101420.05;108565;1277;21945;-81
2022/10/17 06:19:22;;;;;;;42.80;38.20;;;;;;;12.71;76.84;101428.20;108733;1275;21981;-81
2022/10/17 06:22:14;;;;;;;47.00;40.30;;;;;;;12.78;76.78;101434.11;108548;1279;23607;-81
2022/10/17 06:24:51;;;;;;;39.30;35.10;;;;;;;12.89;76.84;101438.66;108544;1281;22685;-79
2022/10/17 06:28:17;;;;;;;;;;;;;;;;;;;;;
2022/10/17 06:31:16;;;;;;;43.20;38.30;;;;;;;13.15;76.76;101449.41;108260;1283;23887;-82
2022/10/17 06:34:27;;;;;;;42.30;36.60;;;;;;;13.30;76.62;101456.48;108088;1284;21971;-84
2022/10/17 06:37:34;;;;;;;;;;;;;;;;;;;;;
2022/10/17 06:40:22;;;;;;;41.70;35.30;;;;;;;13.50;75.99;101455.84;108403;1280;23042;-81
2022/10/17 06:43:17;;;;;;;39.10;34.10;;;;;;;13.63;75.90;101463.64;108725;1280;21997;-83
2022/10/17 06:46:41;;;;;;;35.60;31.80;;;;;;;13.75;75.73;101455.89;108534;1283;22357;-84
2022/10/17 06:49:33;;;;;;;33.70;30.20;;;;;;;13.90;75.40;101453.48;108136;1286;22427;-79
2022/10/17 06:52:30;;;;;;;36.50;32.90;;;;;;;14.02;74.99;101456.19;108078;1285;23603;-83
2022/10/17 06:56:01;;;;;;;;;;;;;;;;;;;;;
2022/10/17 06:59:17;;;;;;;33.40;29.90;;;;;;;14.25;74.41;101464.85;107245;1292;22945;-83
2022/10/17 07:02:42;;;;;;;31.60;28.30;;;;;;;14.37;74.25;101466.73;107188;1291;21972;-81
2022/10/17 07:05:34;;;;;;;34.00;30.40;;;;;;;14.49;73.88;101465.05;107238;1293;21964;-83
2022/10/17 07:08:10;;;;;;;33.50;30.00;;;;;;;14.63;73.49;101465.77;106585;1295;21956;-81
2022/10/17 07:11:01;;;;;;;;;;;;;;;;;;;;;
2022/10/17 07:14:07;;;;;;;34.40;30.60;;;;;;;14.94;73.09;101458.48;107487;1292;21956;-82
2022/10/17 07:17:14;;;;;;;33.60;30.30;;;;;;;15.22;72.97;101461.80;107540;1292;23135;-81
2022/10/17 07:19:46;;;;;;;30.50;27.60;;;;;;;15.46;72.36;101462.60;107405;1292;23076;-81
2022/10/17 07:22:40;;;;;;;30.80;27.50;;;;;;;15.67;71.73;101464.02;107518;1290;23012;-84
2022/10/17 07:26:08;;;;;;;30.20;27.00;;;;;;;15.93;71.02;101461.90;108082;1284;22239;-81
2022/10/17 07:28:56;;;;;;;28.40;25.60;;;;;;;16.24;70.40;101465.65;108403;1280;23675;-81
2022/10/17 07:31:50;;;;;;;30.70;26.40;;;;;;;16.59;69.92;101466.59;108367;1284;21919;-82
2022/10/17 07:34:30;;;;;;;28.90;26.10;;;;;;;16.96;69.16;101467.71;108361;1283;23619;-81
2022/10/17 07:37:21;;;;;;;28.80;25.90;;;;;;;17.33;68.34;101469.31;108555;1280;22118;-81
2022/10/17 07:40:09;;;;;;;27.90;25.30;;;;;;;17.68;66.98;101467.60;108299;1283;22001;-81
2022/10/17 07:43:19;;;;;;;27.50;24.60;;;;;;;18.01;65.91;101467.71;108561;1280;23093;-82
2022/10/17 07:46:07;;;;;;;26.50;24.00;;;;;;;18.31;64.40;101463.86;108748;1278;23061;-82
2022/10/17 07:48:55;;;;;;;;;;;;;;;;;;;;;
2022/10/17 07:51:34;;;;;;;51.20;26.40;;;;;;;18.81;62.60;101469.02;108711;1278;22740;-79
2022/10/17 07:54:06;;;;;;;27.70;24.80;;;;;;;19.09;62.50;101470.80;108462;1278;21926;-79
2022/10/17 07:56:36;;;;;;;27.50;24.50;;;;;;;19.39;61.19;101468.22;108509;1283;23086;-78
2022/10/17 07:59:05;;;;;;;26.20;23.50;;;;;;;19.55;59.53;101467.86;108493;1283;21959;-79
2022/10/17 08:01:37;;;;;;;26.10;23.40;;;;;;;19.58;58.35;101466.98;108320;1283;22185;-78
2022/10/17 08:04:17;;;;;;;;;;;;;;;19.55;57.96;101467.48;108430;1283;21935;-83
2022/10/17 08:06:56;;;;;;;24.90;22.50;;;;;;;19.51;58.07;101466.85;108581;1283;23126;-79
2022/10/17 08:09:47;;;;;;;26.50;23.50;;;;;;;19.51;57.71;101466.85;108215;1283;23615;-79
2022/10/17 08:12:23;;;;;;;26.70;22.80;;;;;;;19.60;57.99;101466.13;108153;1283;21968;-79
2022/10/17 08:15:00;;;;;;;23.60;21.40;;;;;;;19.69;57.81;101468.46;108381;1283;21932;-80
2022/10/17 08:17:39;;;;;;;26.10;23.70;;;;;;;19.74;57.47;101469.98;108346;1280;21923;-80
2022/10/17 08:20:16;;;;;;;25.10;22.20;;;;;;;19.71;56.87;101470.81;108374;1283;21945;-79
2022/10/17 08:23:07;;;;;;;24.70;22.00;;;;;;;19.73;57.08;101474.44;108781;1278;23670;-79
2022/10/17 08:25:41;;;;;;;25.90;22.90;;;;;;;19.78;57.01;101479.28;108753;1279;21959;-80
2022/10/17 08:28:17;;;;;;;25.20;21.80;;;;;;;19.78;56.78;101482.43;108541;1276;21948;-80
2022/10/17 08:31:06;;;;;;;26.20;23.50;;;;;;;19.70;56.47;101484.48;108491;1275;21940;-81
2022/10/17 08:33:43;;;;;;;26.90;23.70;;;;;;;19.72;56.97;101487.56;108856;1275;22120;-81
2022/10/17 08:36:19;;;;;;;24.40;21.90;;;;;;;19.83;57.39;101484.07;108866;1270;21970;-80
2022/10/17 08:39:02;;;;;;;29.90;26.80;;;;;;;19.81;56.54;101482.63;108767;1278;23615;-81
2022/10/17 08:41:37;;;;;;;25.30;23.00;;;;;;;19.88;56.97;101485.05;108705;1279;22349;-80
2022/10/17 08:44:38;;;;;;;24.40;22.00;;;;;;;19.95;56.72;101481.64;108940;1278;23592;-80
2022/10/17 08:47:26;;;;;;;24.20;21.90;;;;;;;19.91;56.25;101482.38;108730;1278;24335;-80
2022/10/17 08:50:37;;;;;;;25.60;22.50;;;;;;;19.87;56.48;101486.36;108733;1279;21934;-81
2022/10/17 08:53:18;;;;;;;26.50;24.00;;;;;;;19.86;56.75;101488.55;108886;1278;21929;-79
2022/10/17 08:55:51;;;;;;;26.80;22.80;;;;;;;19.88;57.11;101491.20;108571;1275;22150;-79
2022/10/17 08:58:37;;;;;;;27.50;23.70;;;;;;;19.92;57.29;101492.09;108503;1278;21943;-79
2022/10/17 09:01:42;;;;;;;24.80;22.30;;;;;;;19.92;57.24;101487.47;108507;1277;23606;-81
2022/10/17 09:04:38;;;;;;;26.70;24.10;;;;;;;19.93;57.21;101487.60;108863;1269;21956;-81
2022/10/17 09:08:01;;;;;;;24.00;21.60;;;;;;;19.93;57.17;101489.68;108694;1279;22748;-80
2022/10/17 09:11:20;;;;;;;29.00;23.30;;;;;;;19.93;57.26;101484.60;108712;1270;21976;-80
2022/10/17 09:15:02;;;;;;;26.50;22.80;;;;;;;20.00;57.45;101478.66;108776;1265;21919;-80
2022/10/17 09:18:09;;;;;;;23.80;20.50;;;;;;;20.11;57.22;101476.80;108370;1283;23108;-81
2022/10/17 09:21:12;;;;;;;24.20;21.70;;;;;;;20.15;56.70;101476.19;108476;1283;22352;-79
2022/10/17 09:23:51;;;;;;;24.30;22.10;;;;;;;20.21;56.63;101472.08;108317;1283;23695;-79
2022/10/17 09:26:39;;;;;;;24.80;22.40;;;;;;;20.32;56.55;101469.36;108145;1285;22992;-80
2022/10/17 09:29:23;;;;;;;24.60;22.40;;;;;;;20.38;56.22;101474.08;108345;1284;21936;-79
2022/10/17 09:32:03;;;;;;;26.20;23.30;;;;;;;20.38;55.72;101470.03;108299;1281;24412;-79
2022/10/17 09:34:32;;;;;;;23.80;21.60;;;;;;;20.48;56.13;101466.26;108441;1284;21942;-78
2022/10/17 09:37:01;;;;;;;24.90;22.00;;;;;;;20.59;56.05;101465.71;108436;1280;23600;-82
2022/10/17 09:39:31;;;;;;;23.50;21.40;;;;;;;20.73;55.88;101467.71;108421;1282;21953;-80
2022/10/17 09:42:02;;;;;;;25.70;22.50;;;;;;;20.83;55.48;101468.49;108506;1280;21952;-81
2022/10/17 09:45:11;;;;;;;24.20;20.50;;;;;;;20.92;55.24;101472.52;108684;1282;21929;-80
2022/10/17 09:47:49;;;;;;;22.90;20.80;;;;;;;20.98;55.07;101471.29;108557;1282;21970;-80
2022/10/17 09:50:26;;;;;;;23.80;21.40;;;;;;;21.12;55.29;101474.79;108662;1279;24291;-81
2022/10/17 09:53:00;;;;;;;26.30;21.30;;;;;;;21.31;54.75;101476.05;108630;1280;21961;-80
2022/10/17 09:55:48;;;;;;;24.10;21.40;;;;;;;21.46;54.22;101475.28;108724;1279;23761;-80
2022/10/17 09:58:19;;;;;;;25.10;22.50;;;;;;;21.62;54.08;101471.05;108782;1277;21926;-80
2022/10/17 10:00:51;;;;;;;23.90;21.70;;;;;;;21.82;53.70;101466.18;108786;1276;22495;-80
2022/10/17 10:03:26;;;;;;;22.50;20.30;;;;;;;22.02;53.71;101465.14;108516;1282;21947;-81
2022/10/17 10:06:03;;;;;;;24.60;21.30;;;;;;;22.24;53.18;101464.55;108520;1279;21958;-80
2022/10/17 10:08:57;;;;;;;25.70;23.00;;;;;;;22.35;52.17;101463.81;108493;1279;22836;-79
2022/10/17 10:12:15;;;;;;;22.80;20.20;;;;;;;22.35;51.87;101462.92;108558;1283;22397;-79
2022/10/17 10:14:54;;;;;;;27.20;21.30;;;;;;;22.40;51.95;101459.89;108682;1282;21951;-79
2022/10/17 10:17:34;;;;;;;22.90;20.60;;;;;;;22.52;51.46;101455.69;108520;1281;23040;-80
2022/10/17 10:20:28;;;;;;;22.00;20.00;;;;;;;22.68;51.82;101452.74;108651;1281;21957;-80
2022/10/17 10:23:16;;;;;;;23.40;21.10;;;;;;;22.93;52.07;101455.62;108810;1274;22124;-80
2022/10/17 10:26:01;;;;;;;25.90;22.10;;;;;;;23.07;51.21;101454.60;108759;1274;22003;-80
2022/10/17 10:28:35;;;;;;;22.20;20.00;;;;;;;23.15;50.77;101459.73;108510;1277;22412;-79
2022/10/17 10:31:08;;;;;;;21.90;19.60;;;;;;;23.24;50.67;101455.54;108675;1277;23094;-79
2022/10/17 10:33:42;;;;;;;22.80;20.30;;;;;;;23.31;50.36;101456.01;108544;1280;21944;-80
2022/10/17 10:36:20;;;;;;;21.00;19.00;;;;;;;23.42;50.33;101456.33;108680;1279;21941;-79
2022/10/17 10:38:56;;;;;;;23.40;20.90;;;;;;;23.52;49.89;101458.59;108474;1282;22249;-79
2022/10/17 10:41:47;;;;;;;21.10;19.20;;;;;;;23.53;49.30;101460.13;108305;1282;22021;-79
2022/10/17 10:44:24;;;;;;;21.90;19.60;;;;;;;23.59;49.57;101460.55;108441;1283;21940;-79
2022/10/17 10:47:31;;;;;;;21.90;19.30;;;;;;;23.62;48.94;101459.95;108596;1280;24302;-79
2022/10/17 10:50:23;;;;;;;23.80;21.00;;;;;;;23.62;49.31;101460.35;108200;1284;21958;-80
2022/10/17 10:53:25;;;;;;;22.40;20.10;;;;;;;23.64;48.87;101456.45;108368;1281;23635;-78
2022/10/17 10:56:30;;;;;;;21.20;19.10;;;;;;;23.64;48.90;101455.52;108505;1281;21968;-78
2022/10/17 10:59:13;;;;;;;29.50;25.90;;;;;;;23.60;48.65;101453.35;108354;1282;21955;-79
2022/10/17 11:02:02;;;;;;;22.20;20.20;;;;;;;23.55;48.70;101453.21;108315;1282;21943;-78
2022/10/17 11:04:51;;;;;;;20.80;18.80;;;;;;;23.48;48.65;101450.33;108166;1286;21944;-78
2022/10/17 11:07:51;;;;;;;20.70;18.90;;;;;;;23.40;48.67;101451.64;107987;1286;23103;-78
2022/10/17 11:10:54;;;;;;;19.20;17.10;;;;;;;23.28;48.61;101446.46;107852;1286;23193;-78
2022/10/17 11:13:30;;;;;;;23.40;21.10;;;;;;;23.14;48.61;101442.75;108057;1286;21982;-79
2022/10/17 11:16:22;;;;;;;21.70;19.70;;;;;;;23.06;48.71;101442.07;107820;1286;23441;-78
2022/10/17 11:19:22;;;;;;;19.20;17.20;;;;;;;22.99;49.13;101441.83;108205;1286;23268;-78
2022/10/17 11:22:22;;;;;;;19.30;17.40;;;;;;;22.94;48.97;101439.02;107777;1286;21949;-79
2022/10/17 11:25:23;;;;;;;17.80;16.10;;;;;;;22.88;48.99;101437.52;108496;1275;21933;-79
2022/10/17 11:27:52;;;;;;;17.10;15.40;;;;;;;22.86;49.05;101434.65;108561;1275;21928;-79
2022/10/17 11:30:26;;;;;;;20.60;17.30;;;;;;;22.84;48.77;101431.77;108525;1275;22055;-78
2022/10/17 11:33:00;;;;;;;19.30;16.90;;;;;;;22.82;48.91;101431.38;108604;1275;22677;-79
2022/10/17 11:35:37;;;;;;;18.00;16.40;;;;;;;22.83;49.10;101432.54;108920;1275;21953;-79
2022/10/17 11:38:44;;;;;;;18.50;16.80;;;;;;;22.84;49.35;101429.64;108877;1275;23599;-79
2022/10/17 11:41:25;;;;;;;19.00;17.10;;;;;;;22.83;49.46;101430.59;108876;1274;21946;-79
2022/10/17 11:44:31;;;;;;;17.30;15.60;;;;;;;22.85;49.62;101430.26;108905;1273;22337;-78
2022/10/17 11:47:41;;;;;;;18.50;16.70;;;;;;;22.85;49.57;101431.35;108803;1278;23684;-78
2022/10/17 11:50:41;;;;;;;19.80;16.30;;;;;;;22.81;49.45;101429.14;108827;1278;22265;-78
2022/10/17 11:54:08;;;;;;;18.20;16.40;;;;;;;22.78;49.47;101425.42;108540;1271;23718;-78
2022/10/17 11:56:53;;;;;;;19.40;17.20;;;;;;;22.75;49.46;101423.69;108120;1283;23922;-79
2022/10/17 12:00:08;;;;;;;18.90;17.10;;;;;;;22.74;49.48;101419.73;108419;1279;22989;-79
2022/10/17 12:03:03;;;;;;;18.70;16.60;;;;;;;22.70;49.57;101416.80;108425;1283;21942;-77
2022/10/17 12:05:55;;;;;;;17.70;15.60;;;;;;;22.70;49.56;101410.56;107981;1283;23719;-79
2022/10/17 12:08:38;;;;;;;17.30;15.60;;;;;;;22.71;49.47;101405.54;108394;1283;23614;-79
2022/10/17 12:11:44;;;;;;;16.80;15.40;;;;;;;22.73;49.53;101407.72;108216;1281;22998;-78
2022/10/17 12:14:35;;;;;;;17.70;16.00;;;;;;;22.72;49.54;101407.27;108139;1282;21948;-79
2022/10/17 12:17:39;;;;;;;18.50;16.80;;;;;;;22.72;49.44;101406.89;108183;1276;21945;-78
2022/10/17 12:20:20;;;;;;;18.40;16.60;;;;;;;22.73;49.45;101400.27;108605;1280;21956;-79
2022/10/17 12:22:50;;;;;;;17.60;15.90;;;;;;;22.78;49.50;101398.11;108466;1273;21961;-78
2022/10/17 12:25:29;;;;;;;22.10;17.00;;;;;;;22.83;49.48;101400.63;108249;1282;24398;-78
2022/10/17 12:28:21;;;;;;;20.60;16.50;;;;;;;22.85;49.51;101397.05;108562;1283;21958;-78
2022/10/17 12:30:56;;;;;;;19.20;17.50;;;;;;;22.86;49.11;101392.58;108414;1282;23126;-79
2022/10/17 12:33:47;;;;;;;15.80;14.30;;;;;;;22.87;48.88;101391.29;108760;1275;21949;-77
2022/10/17 12:36:16;;;;;;;17.30;15.50;;;;;;;22.85;48.75;101388.38;108661;1274;23774;-78
2022/10/17 12:39:00;;;;;;;18.90;16.60;;;;;;;22.87;48.87;101388.98;108868;1272;22154;-78
2022/10/17 12:41:38;;;;;;;20.20;15.80;;;;;;;22.86;48.81;101386.36;107702;1271;1135559;-79